Skip Navigation Links
NOAA logo - Click to go to the NOAA homepage
NOAA's National Weather Service
Alaska Aviation Weather Unit
  NWS logo - Click to go to the NWS homepage
Left Navbar Graphic     23 AKDT = 07 GMT

   
NOAA is celebrating 200 years of science, service, and stewardship. Visit the NOAA 200th celebration Web site to learn more.
USA.gov is the U.S. Government's official Web portal to all Federal, state and local government Web resources and services.
Facebook
NWS on Facebook

Important Change Regarding the AAWU Web Presence

 

Over the last several months, the AAWU has been working to navigate its webpages to a nationally supported server. Security, as well as other needs, have necessitated the change.  In the process, we have made an effort to enhance the functionality of our website, as well as some of our products. As of June 20, 2017, aawu.arh.noaa.gov will be discontinued. The new AAWU web address is weather.gov/aawu. It is now live and will run in-parallel with the old site until it is discontinued. Please send any feedback or questions regarding the new webpages to nws.ar.aawu.webauthors@noaa.gov.  Thank you for your patience during this time of transition.
AAWU Home :: Display TAF Add Bookmark
METAR PAMO 240256Z AUTO 14008KT FEW010 BKN020 OVC028 06/04 A2974 RMK AO2
     SLP087 P0001 60001 T00560044 58013 PWINO $=

SPECI PAMO 240335Z AUTO 15012KT FEW007 BKN013 OVC022 06/04 A2973 RMK AO2
     P0001 PWINO $=

METAR PAMO 240356Z AUTO 16011KT BKN009 OVC014 05/04 A2972 RMK AO2 CIG
     008V011 SLP080 P0003 T00500044 PWINO $=

SPECI PAMO 240442Z AUTO 15014KT FEW009 BKN016 OVC033 05/03 A2970 RMK AO2
     P0001 PWINO $=

METAR PAMO 240456Z AUTO 14012KT BKN009 BKN016 OVC032 05/04 A2969 RMK AO2
     CIG 007V013 SLP070 P0001 T00500039 PWINO $=

SPECI PAMO 240505Z AUTO 14012KT SCT011 BKN018 OVC032 05/04 A2969 RMK AO2
     P0001 PWINO $=

SPECI PAMO 240526Z AUTO 14012KT FEW009 BKN018 OVC029 05/04 A2968 RMK AO2
     P0001 PWINO $=

METAR PAMO 240556Z AUTO 14011KT BKN023 BKN030 OVC038 04/03 A2967 RMK AO2
     SLP063 P0002 60007 T00440033 10089 20044 56024 PWINO $=

SPECI PAMO 240639Z AUTO 14008KT FEW008 BKN024 OVC029 04/03 A2966 RMK
 AO2 P0001 PWINO $=

SPECI PAMO 240653Z AUTO 14011KT BKN008 BKN016 OVC025 04/03 A2966 RMK AO2
     CIG 006V010 P0002 PWINO $=

SPECI PAMO 240724Z AUTO 14010KT BKN007 OVC014 04/04 A2965 RMK AO2
 CIG 006V010 P0002 PWINO $=


NOAA's National Weather Service
Alaska Aviation Weather Unit
6930 Sand Lake Road
Anchorage, AK 99502-1845
Disclaimer
Credits
Glossary
Privacy Policy
About Us
Career Opportunities
Contact AAWU Internet Services Site last modified: April, 17th 2012